sensor_id;sensor_type;location;lat;lon;timestamp;temperature;humidity
7942;HTU21D;4016;50.758;7.150;2024-01-07T00:04:56;3.08;118.99
7942;HTU21D;4016;50.758;7.150;2024-01-07T00:09:56;3.10;118.99
7942;HTU21D;4016;50.758;7.150;2024-01-07T00:14:56;3.27;118.99
7942;HTU21D;4016;50.758;7.150;2024-01-07T00:19:57;3.19;118.99
7942;HTU21D;4016;50.758;7.150;2024-01-07T00:24:57;3.28;118.99
7942;HTU21D;4016;50.758;7.150;2024-01-07T00:29:58;3.12;118.99
7942;HTU21D;4016;50.758;7.150;2024-01-07T00:34:58;3.29;118.99
7942;HTU21D;4016;50.758;7.150;2024-01-07T00:39:58;3.20;118.99
7942;HTU21D;4016;50.758;7.150;2024-01-07T00:44:59;3.25;118.99
7942;HTU21D;4016;50.758;7.150;2024-01-07T00:49:59;3.40;118.99
7942;HTU21D;4016;50.758;7.150;2024-01-07T00:54:59;3.25;118.99
7942;HTU21D;4016;50.758;7.150;2024-01-07T01:00:04;3.26;118.99
7942;HTU21D;4016;50.758;7.150;2024-01-07T01:05:05;3.20;118.99
7942;HTU21D;4016;50.758;7.150;2024-01-07T01:10:06;3.17;118.99
7942;HTU21D;4016;50.758;7.150;2024-01-07T01:15:07;3.09;118.99
7942;HTU21D;4016;50.758;7.150;2024-01-07T01:20:08;3.13;118.99
7942;HTU21D;4016;50.758;7.150;2024-01-07T01:25:08;3.28;118.99
7942;HTU21D;4016;50.758;7.150;2024-01-07T01:30:11;3.23;118.99
7942;HTU21D;4016;50.758;7.150;2024-01-07T01:35:11;3.31;118.99
7942;HTU21D;4016;50.758;7.150;2024-01-07T01:40:11;3.21;118.99
7942;HTU21D;4016;50.758;7.150;2024-01-07T01:45:12;3.25;118.99
7942;HTU21D;4016;50.758;7.150;2024-01-07T01:50:13;3.33;118.99
7942;HTU21D;4016;50.758;7.150;2024-01-07T01:55:14;3.35;118.99
7942;HTU21D;4016;50.758;7.150;2024-01-07T02:00:15;3.32;118.99
7942;HTU21D;4016;50.758;7.150;2024-01-07T02:05:15;3.27;118.99
7942;HTU21D;4016;50.758;7.150;2024-01-07T02:10:16;3.33;118.99
7942;HTU21D;4016;50.758;7.150;2024-01-07T02:15:16;3.44;118.99
7942;HTU21D;4016;50.758;7.150;2024-01-07T02:20:17;3.26;118.99
7942;HTU21D;4016;50.758;7.150;2024-01-07T02:25:17;3.53;118.99
7942;HTU21D;4016;50.758;7.150;2024-01-07T02:30:18;3.34;118.99
7942;HTU21D;4016;50.758;7.150;2024-01-07T02:35:18;3.41;118.99
7942;HTU21D;4016;50.758;7.150;2024-01-07T02:40:19;3.44;118.99
7942;HTU21D;4016;50.758;7.150;2024-01-07T02:45:19;3.33;118.99
7942;HTU21D;4016;50.758;7.150;2024-01-07T02:50:19;3.30;118.99
7942;HTU21D;4016;50.758;7.150;2024-01-07T02:55:20;3.39;118.99
7942;HTU21D;4016;50.758;7.150;2024-01-07T03:00:20;3.26;118.99
7942;HTU21D;4016;50.758;7.150;2024-01-07T03:05:21;3.54;118.99
7942;HTU21D;4016;50.758;7.150;2024-01-07T03:10:21;3.45;118.99
7942;HTU21D;4016;50.758;7.150;2024-01-07T03:15:21;3.26;118.99
7942;HTU21D;4016;50.758;7.150;2024-01-07T03:20:22;3.29;118.99
7942;HTU21D;4016;50.758;7.150;2024-01-07T03:25:22;3.32;118.99
7942;HTU21D;4016;50.758;7.150;2024-01-07T03:30:22;3.40;118.99
7942;HTU21D;4016;50.758;7.150;2024-01-07T03:35:23;3.43;118.99
7942;HTU21D;4016;50.758;7.150;2024-01-07T03:40:24;3.25;118.99
7942;HTU21D;4016;50.758;7.150;2024-01-07T03:45:24;3.35;118.99
7942;HTU21D;4016;50.758;7.150;2024-01-07T03:50:26;3.28;118.99
7942;HTU21D;4016;50.758;7.150;2024-01-07T03:55:26;3.34;118.99
7942;HTU21D;4016;50.758;7.150;2024-01-07T04:00:26;3.25;118.99
7942;HTU21D;4016;50.758;7.150;2024-01-07T04:05:27;3.24;118.99
7942;HTU21D;4016;50.758;7.150;2024-01-07T04:10:29;3.38;118.99
7942;HTU21D;4016;50.758;7.150;2024-01-07T04:15:30;3.21;118.99
7942;HTU21D;4016;50.758;7.150;2024-01-07T04:20:30;3.30;118.99
7942;HTU21D;4016;50.758;7.150;2024-01-07T04:25:31;3.34;118.99
7942;HTU21D;4016;50.758;7.150;2024-01-07T04:30:31;3.24;118.99
7942;HTU21D;4016;50.758;7.150;2024-01-07T04:35:32;3.23;118.99
7942;HTU21D;4016;50.758;7.150;2024-01-07T04:40:32;3.62;118.99
7942;HTU21D;4016;50.758;7.150;2024-01-07T04:45:32;3.42;118.99
7942;HTU21D;4016;50.758;7.150;2024-01-07T04:50:33;3.31;118.99
7942;HTU21D;4016;50.758;7.150;2024-01-07T04:55:33;3.26;118.99
7942;HTU21D;4016;50.758;7.150;2024-01-07T05:00:34;3.23;118.99
7942;HTU21D;4016;50.758;7.150;2024-01-07T05:05:34;3.09;118.99
7942;HTU21D;4016;50.758;7.150;2024-01-07T05:10:36;3.09;118.99
7942;HTU21D;4016;50.758;7.150;2024-01-07T05:15:36;3.20;118.99
7942;HTU21D;4016;50.758;7.150;2024-01-07T05:20:37;2.96;118.99
7942;HTU21D;4016;50.758;7.150;2024-01-07T05:25:37;2.99;118.99
7942;HTU21D;4016;50.758;7.150;2024-01-07T05:30:43;3.19;118.99
7942;HTU21D;4016;50.758;7.150;2024-01-07T05:35:43;2.99;118.99
7942;HTU21D;4016;50.758;7.150;2024-01-07T05:40:44;2.85;118.99
7942;HTU21D;4016;50.758;7.150;2024-01-07T05:45:44;2.78;118.99
7942;HTU21D;4016;50.758;7.150;2024-01-07T05:50:45;2.86;118.99
7942;HTU21D;4016;50.758;7.150;2024-01-07T05:55:45;3.04;118.99
7942;HTU21D;4016;50.758;7.150;2024-01-07T06:00:45;2.97;118.99
7942;HTU21D;4016;50.758;7.150;2024-01-07T06:05:46;2.88;118.99
7942;HTU21D;4016;50.758;7.150;2024-01-07T06:10:46;2.69;118.99
7942;HTU21D;4016;50.758;7.150;2024-01-07T06:15:46;2.64;118.99
7942;HTU21D;4016;50.758;7.150;2024-01-07T06:20:47;2.57;118.99
7942;HTU21D;4016;50.758;7.150;2024-01-07T06:25:47;2.52;118.99
7942;HTU21D;4016;50.758;7.150;2024-01-07T06:30:48;2.67;118.99
7942;HTU21D;4016;50.758;7.150;2024-01-07T06:35:48;2.68;118.99
7942;HTU21D;4016;50.758;7.150;2024-01-07T06:40:48;2.82;118.99
7942;HTU21D;4016;50.758;7.150;2024-01-07T06:45:49;2.88;118.99
7942;HTU21D;4016;50.758;7.150;2024-01-07T06:50:49;2.69;118.99
7942;HTU21D;4016;50.758;7.150;2024-01-07T06:55:50;2.68;118.99
7942;HTU21D;4016;50.758;7.150;2024-01-07T07:00:50;2.79;118.99
7942;HTU21D;4016;50.758;7.150;2024-01-07T07:05:51;2.72;118.99
7942;HTU21D;4016;50.758;7.150;2024-01-07T07:10:51;2.69;118.99
7942;HTU21D;4016;50.758;7.150;2024-01-07T07:15:51;2.74;118.99
7942;HTU21D;4016;50.758;7.150;2024-01-07T07:20:52;2.64;118.99
7942;HTU21D;4016;50.758;7.150;2024-01-07T07:25:53;2.61;118.99
7942;HTU21D;4016;50.758;7.150;2024-01-07T07:30:53;2.78;118.99
7942;HTU21D;4016;50.758;7.150;2024-01-07T07:35:53;2.53;118.99
7942;HTU21D;4016;50.758;7.150;2024-01-07T07:40:54;2.80;118.99
7942;HTU21D;4016;50.758;7.150;2024-01-07T07:45:54;2.61;118.99
7942;HTU21D;4016;50.758;7.150;2024-01-07T07:50:55;2.60;118.99
7942;HTU21D;4016;50.758;7.150;2024-01-07T07:55:55;2.76;118.99
7942;HTU21D;4016;50.758;7.150;2024-01-07T08:00:55;2.66;118.99
7942;HTU21D;4016;50.758;7.150;2024-01-07T08:05:56;2.81;118.99
7942;HTU21D;4016;50.758;7.150;2024-01-07T08:10:56;2.56;118.99
7942;HTU21D;4016;50.758;7.150;2024-01-07T08:15:57;2.68;118.99
7942;HTU21D;4016;50.758;7.150;2024-01-07T08:20:58;2.68;118.99
7942;HTU21D;4016;50.758;7.150;2024-01-07T08:25:58;2.65;118.99
7942;HTU21D;4016;50.758;7.150;2024-01-07T08:30:58;2.72;118.99
7942;HTU21D;4016;50.758;7.150;2024-01-07T08:35:59;2.73;118.99
7942;HTU21D;4016;50.758;7.150;2024-01-07T08:40:59;2.74;118.99
7942;HTU21D;4016;50.758;7.150;2024-01-07T08:46:00;3.03;118.99
7942;HTU21D;4016;50.758;7.150;2024-01-07T08:51:00;2.61;118.99
7942;HTU21D;4016;50.758;7.150;2024-01-07T08:56:01;2.74;118.99
7942;HTU21D;4016;50.758;7.150;2024-01-07T09:01:01;2.64;118.99
7942;HTU21D;4016;50.758;7.150;2024-01-07T09:06:02;2.89;118.99
7942;HTU21D;4016;50.758;7.150;2024-01-07T09:11:06;2.74;118.99
7942;HTU21D;4016;50.758;7.150;2024-01-07T09:16:07;3.08;118.99
7942;HTU21D;4016;50.758;7.150;2024-01-07T09:21:11;2.85;118.99
7942;HTU21D;4016;50.758;7.150;2024-01-07T09:26:12;3.03;118.99
7942;HTU21D;4016;50.758;7.150;2024-01-07T09:31:12;2.75;118.99
7942;HTU21D;4016;50.758;7.150;2024-01-07T09:36:13;2.74;118.99
7942;HTU21D;4016;50.758;7.150;2024-01-07T09:41:13;2.89;118.99
7942;HTU21D;4016;50.758;7.150;2024-01-07T09:46:14;2.95;118.99
7942;HTU21D;4016;50.758;7.150;2024-01-07T09:51:15;2.79;118.99
7942;HTU21D;4016;50.758;7.150;2024-01-07T09:56:34;2.75;118.99
7942;HTU21D;4016;50.758;7.150;2024-01-07T10:01:36;2.88;118.99
7942;HTU21D;4016;50.758;7.150;2024-01-07T10:06:37;2.72;118.99
7942;HTU21D;4016;50.758;7.150;2024-01-07T10:11:38;2.94;118.99
7942;HTU21D;4016;50.758;7.150;2024-01-07T10:16:39;3.11;118.99
7942;HTU21D;4016;50.758;7.150;2024-01-07T10:21:39;2.85;118.99
7942;HTU21D;4016;50.758;7.150;2024-01-07T10:26:40;2.85;118.99
7942;HTU21D;4016;50.758;7.150;2024-01-07T10:31:41;3.04;118.99
7942;HTU21D;4016;50.758;7.150;2024-01-07T10:36:44;2.97;118.99
7942;HTU21D;4016;50.758;7.150;2024-01-07T10:41:46;2.93;118.99
7942;HTU21D;4016;50.758;7.150;2024-01-07T10:46:47;2.78;118.99
7942;HTU21D;4016;50.758;7.150;2024-01-07T11:03:14;2.97;118.99
7942;HTU21D;4016;50.758;7.150;2024-01-07T11:08:34;2.95;118.99
7942;HTU21D;4016;50.758;7.150;2024-01-07T11:13:37;2.96;118.99
7942;HTU21D;4016;50.758;7.150;2024-01-07T11:18:46;2.97;118.99
7942;HTU21D;4016;50.758;7.150;2024-01-07T11:23:47;3.08;118.99
7942;HTU21D;4016;50.758;7.150;2024-01-07T11:28:51;2.86;118.99
7942;HTU21D;4016;50.758;7.150;2024-01-07T11:33:52;2.85;118.99
7942;HTU21D;4016;50.758;7.150;2024-01-07T11:38:53;2.89;118.99
7942;HTU21D;4016;50.758;7.150;2024-01-07T11:43:54;3.10;118.99
7942;HTU21D;4016;50.758;7.150;2024-01-07T11:48:58;2.88;118.99
7942;HTU21D;4016;50.758;7.150;2024-01-07T11:53:59;2.96;118.99
7942;HTU21D;4016;50.758;7.150;2024-01-07T11:59:00;2.95;118.99
7942;HTU21D;4016;50.758;7.150;2024-01-07T12:04:00;2.89;118.99
7942;HTU21D;4016;50.758;7.150;2024-01-07T12:09:01;2.81;118.99
7942;HTU21D;4016;50.758;7.150;2024-01-07T12:14:01;3.21;118.99
7942;HTU21D;4016;50.758;7.150;2024-01-07T12:19:03;2.96;118.99
7942;HTU21D;4016;50.758;7.150;2024-01-07T12:24:04;3.05;118.99
7942;HTU21D;4016;50.758;7.150;2024-01-07T12:29:04;2.85;118.99
7942;HTU21D;4016;50.758;7.150;2024-01-07T12:34:07;2.79;118.99
7942;HTU21D;4016;50.758;7.150;2024-01-07T12:39:07;2.93;118.99
7942;HTU21D;4016;50.758;7.150;2024-01-07T12:44:08;2.97;118.99
7942;HTU21D;4016;50.758;7.150;2024-01-07T12:49:09;2.61;118.99
7942;HTU21D;4016;50.758;7.150;2024-01-07T12:54:09;2.73;118.99
7942;HTU21D;4016;50.758;7.150;2024-01-07T12:59:09;2.79;118.99
7942;HTU21D;4016;50.758;7.150;2024-01-07T13:04:10;2.68;118.99
7942;HTU21D;4016;50.758;7.150;2024-01-07T13:09:11;2.79;118.99
7942;HTU21D;4016;50.758;7.150;2024-01-07T13:14:11;2.75;118.99
7942;HTU21D;4016;50.758;7.150;2024-01-07T13:19:12;2.78;118.99
7942;HTU21D;4016;50.758;7.150;2024-01-07T13:24:12;2.76;118.99
7942;HTU21D;4016;50.758;7.150;2024-01-07T13:29:12;2.69;118.99
7942;HTU21D;4016;50.758;7.150;2024-01-07T13:34:13;2.64;118.99
7942;HTU21D;4016;50.758;7.150;2024-01-07T13:39:14;2.50;118.99
7942;HTU21D;4016;50.758;7.150;2024-01-07T13:44:16;2.42;118.99
7942;HTU21D;4016;50.758;7.150;2024-01-07T13:49:19;2.17;118.99
7942;HTU21D;4016;50.758;7.150;2024-01-07T13:54:20;2.11;118.99
7942;HTU21D;4016;50.758;7.150;2024-01-07T13:59:20;2.34;118.99
7942;HTU21D;4016;50.758;7.150;2024-01-07T14:04:21;2.06;118.99
7942;HTU21D;4016;50.758;7.150;2024-01-07T14:09:23;2.09;118.99
7942;HTU21D;4016;50.758;7.150;2024-01-07T14:14:23;2.12;118.99
7942;HTU21D;4016;50.758;7.150;2024-01-07T14:19:23;1.85;118.99
7942;HTU21D;4016;50.758;7.150;2024-01-07T14:24:24;1.85;118.99
7942;HTU21D;4016;50.758;7.150;2024-01-07T14:29:24;1.70;118.99
7942;HTU21D;4016;50.758;7.150;2024-01-07T14:34:25;1.79;118.99
7942;HTU21D;4016;50.758;7.150;2024-01-07T14:39:25;1.62;118.99
7942;HTU21D;4016;50.758;7.150;2024-01-07T14:44:26;1.47;118.99
7942;HTU21D;4016;50.758;7.150;2024-01-07T14:49:26;1.31;118.99
7942;HTU21D;4016;50.758;7.150;2024-01-07T14:54:27;1.31;118.99
7942;HTU21D;4016;50.758;7.150;2024-01-07T14:59:27;1.26;118.99
7942;HTU21D;4016;50.758;7.150;2024-01-07T15:04:28;1.14;118.99
7942;HTU21D;4016;50.758;7.150;2024-01-07T15:09:28;1.11;118.99
7942;HTU21D;4016;50.758;7.150;2024-01-07T15:14:28;1.17;118.99
7942;HTU21D;4016;50.758;7.150;2024-01-07T15:19:29;1.04;118.99
7942;HTU21D;4016;50.758;7.150;2024-01-07T15:24:30;1.07;118.99
7942;HTU21D;4016;50.758;7.150;2024-01-07T15:29:30;0.96;118.99
7942;HTU21D;4016;50.758;7.150;2024-01-07T15:34:30;0.90;118.99
7942;HTU21D;4016;50.758;7.150;2024-01-07T15:39:31;0.95;118.99
7942;HTU21D;4016;50.758;7.150;2024-01-07T15:44:31;0.66;118.99
7942;HTU21D;4016;50.758;7.150;2024-01-07T15:49:31;0.74;118.99
7942;HTU21D;4016;50.758;7.150;2024-01-07T15:54:32;0.60;118.99
7942;HTU21D;4016;50.758;7.150;2024-01-07T15:59:32;0.49;118.99
7942;HTU21D;4016;50.758;7.150;2024-01-07T16:04:33;0.44;118.99
7942;HTU21D;4016;50.758;7.150;2024-01-07T16:09:33;0.45;118.99
7942;HTU21D;4016;50.758;7.150;2024-01-07T16:14:36;0.42;118.99
7942;HTU21D;4016;50.758;7.150;2024-01-07T16:19:36;0.60;118.99
7942;HTU21D;4016;50.758;7.150;2024-01-07T16:24:37;0.50;118.99
7942;HTU21D;4016;50.758;7.150;2024-01-07T16:29:39;0.43;118.99
7942;HTU21D;4016;50.758;7.150;2024-01-07T16:34:39;0.45;118.99
7942;HTU21D;4016;50.758;7.150;2024-01-07T16:39:40;0.39;118.99
7942;HTU21D;4016;50.758;7.150;2024-01-07T16:44:40;0.43;118.99
7942;HTU21D;4016;50.758;7.150;2024-01-07T16:49:40;0.37;118.34
7942;HTU21D;4016;50.758;7.150;2024-01-07T16:54:41;0.35;115.80
7942;HTU21D;4016;50.758;7.150;2024-01-07T16:59:41;0.36;115.81
7942;HTU21D;4016;50.758;7.150;2024-01-07T17:04:42;0.34;115.85
7942;HTU21D;4016;50.758;7.150;2024-01-07T17:09:43;0.34;114.38
7942;HTU21D;4016;50.758;7.150;2024-01-07T17:14:43;0.34;114.17
7942;HTU21D;4016;50.758;7.150;2024-01-07T17:19:45;0.37;113.42
7942;HTU21D;4016;50.758;7.150;2024-01-07T17:24:45;0.22;116.13
7942;HTU21D;4016;50.758;7.150;2024-01-07T17:29:46;0.28;116.51
7942;HTU21D;4016;50.758;7.150;2024-01-07T17:34:48;0.20;115.92
7942;HTU21D;4016;50.758;7.150;2024-01-07T17:39:49;0.31;117.41
7942;HTU21D;4016;50.758;7.150;2024-01-07T17:44:49;0.32;117.53
7942;HTU21D;4016;50.758;7.150;2024-01-07T17:49:50;0.30;118.86
7942;HTU21D;4016;50.758;7.150;2024-01-07T17:54:50;0.39;117.25
7942;HTU21D;4016;50.758;7.150;2024-01-07T17:59:50;0.34;115.41
7942;HTU21D;4016;50.758;7.150;2024-01-07T18:04:51;0.33;110.87
7942;HTU21D;4016;50.758;7.150;2024-01-07T18:09:51;0.28;112.30
7942;HTU21D;4016;50.758;7.150;2024-01-07T18:14:52;0.34;112.73
7942;HTU21D;4016;50.758;7.150;2024-01-07T18:19:54;0.35;114.39
7942;HTU21D;4016;50.758;7.150;2024-01-07T18:24:54;0.42;108.99
7942;HTU21D;4016;50.758;7.150;2024-01-07T18:29:55;0.36;111.36
7942;HTU21D;4016;50.758;7.150;2024-01-07T18:34:57;0.24;109.31
7942;HTU21D;4016;50.758;7.150;2024-01-07T18:39:57;0.35;109.21
7942;HTU21D;4016;50.758;7.150;2024-01-07T18:44:58;0.58;106.40
7942;HTU21D;4016;50.758;7.150;2024-01-07T18:49:58;0.46;106.88
7942;HTU21D;4016;50.758;7.150;2024-01-07T18:54:59;0.44;106.08
7942;HTU21D;4016;50.758;7.150;2024-01-07T18:59:59;0.50;105.49
7942;HTU21D;4016;50.758;7.150;2024-01-07T19:04:59;0.46;106.54
7942;HTU21D;4016;50.758;7.150;2024-01-07T19:10:00;0.52;105.60
7942;HTU21D;4016;50.758;7.150;2024-01-07T19:15:00;0.37;109.55
7942;HTU21D;4016;50.758;7.150;2024-01-07T19:20:01;0.49;110.10
7942;HTU21D;4016;50.758;7.150;2024-01-07T19:25:01;0.53;109.52
7942;HTU21D;4016;50.758;7.150;2024-01-07T19:30:01;0.63;109.64
7942;HTU21D;4016;50.758;7.150;2024-01-07T19:35:02;0.80;105.85
7942;HTU21D;4016;50.758;7.150;2024-01-07T19:40:03;0.50;110.82
7942;HTU21D;4016;50.758;7.150;2024-01-07T19:45:04;0.50;111.08
7942;HTU21D;4016;50.758;7.150;2024-01-07T19:50:05;0.49;103.24
7942;HTU21D;4016;50.758;7.150;2024-01-07T19:55:06;0.62;102.27
7942;HTU21D;4016;50.758;7.150;2024-01-07T20:00:07;0.60;104.34
7942;HTU21D;4016;50.758;7.150;2024-01-07T20:05:10;0.44;107.01
7942;HTU21D;4016;50.758;7.150;2024-01-07T20:10:10;0.45;106.87
7942;HTU21D;4016;50.758;7.150;2024-01-07T20:15:11;0.47;108.11
7942;HTU21D;4016;50.758;7.150;2024-01-07T20:20:11;0.46;109.43
7942;HTU21D;4016;50.758;7.150;2024-01-07T20:25:12;0.53;105.72
7942;HTU21D;4016;50.758;7.150;2024-01-07T20:30:12;0.51;105.25
7942;HTU21D;4016;50.758;7.150;2024-01-07T20:35:13;0.45;102.06
7942;HTU21D;4016;50.758;7.150;2024-01-07T20:40:14;0.40;99.45
7942;HTU21D;4016;50.758;7.150;2024-01-07T20:45:14;0.47;95.17
7942;HTU21D;4016;50.758;7.150;2024-01-07T20:50:15;0.54;93.51
7942;HTU21D;4016;50.758;7.150;2024-01-07T20:55:15;0.37;95.36
7942;HTU21D;4016;50.758;7.150;2024-01-07T21:00:16;0.32;96.52
7942;HTU21D;4016;50.758;7.150;2024-01-07T21:05:17;0.44;92.82
7942;HTU21D;4016;50.758;7.150;2024-01-07T21:10:21;0.52;93.89
7942;HTU21D;4016;50.758;7.150;2024-01-07T21:15:21;0.51;93.77
7942;HTU21D;4016;50.758;7.150;2024-01-07T21:20:22;0.38;94.20
7942;HTU21D;4016;50.758;7.150;2024-01-07T21:25:23;0.28;94.40
7942;HTU21D;4016;50.758;7.150;2024-01-07T21:30:24;0.34;94.75
7942;HTU21D;4016;50.758;7.150;2024-01-07T21:35:24;0.42;95.17
7942;HTU21D;4016;50.758;7.150;2024-01-07T21:40:24;0.40;94.31
7942;HTU21D;4016;50.758;7.150;2024-01-07T21:45:25;0.33;96.36
7942;HTU21D;4016;50.758;7.150;2024-01-07T21:50:25;0.43;95.42
7942;HTU21D;4016;50.758;7.150;2024-01-07T21:55:26;0.39;96.68
7942;HTU21D;4016;50.758;7.150;2024-01-07T22:00:26;0.57;99.51
7942;HTU21D;4016;50.758;7.150;2024-01-07T22:05:26;0.36;98.06
7942;HTU21D;4016;50.758;7.150;2024-01-07T22:10:27;0.29;99.38
7942;HTU21D;4016;50.758;7.150;2024-01-07T22:15:27;0.30;99.55
7942;HTU21D;4016;50.758;7.150;2024-01-07T22:20:27;0.17;101.15
7942;HTU21D;4016;50.758;7.150;2024-01-07T22:25:28;0.24;101.54
7942;HTU21D;4016;50.758;7.150;2024-01-07T22:30:29;0.15;98.71
7942;HTU21D;4016;50.758;7.150;2024-01-07T22:35:30;0.02;97.87
7942;HTU21D;4016;50.758;7.150;2024-01-07T22:40:30;0.09;99.57
7942;HTU21D;4016;50.758;7.150;2024-01-07T22:45:32;0.07;98.60
7942;HTU21D;4016;50.758;7.150;2024-01-07T22:50:32;0.06;99.32
7942;HTU21D;4016;50.758;7.150;2024-01-07T22:55:34;0.14;100.53
7942;HTU21D;4016;50.758;7.150;2024-01-07T23:00:35;0.34;98.13
7942;HTU21D;4016;50.758;7.150;2024-01-07T23:05:35;0.29;100.45
7942;HTU21D;4016;50.758;7.150;2024-01-07T23:10:36;0.03;103.60
7942;HTU21D;4016;50.758;7.150;2024-01-07T23:15:36;0.07;99.40
7942;HTU21D;4016;50.758;7.150;2024-01-07T23:20:37;0.02;98.82
7942;HTU21D;4016;50.758;7.150;2024-01-07T23:25:37;-0.06;99.28
7942;HTU21D;4016;50.758;7.150;2024-01-07T23:30:38;-0.07;101.68
7942;HTU21D;4016;50.758;7.150;2024-01-07T23:35:38;-0.13;99.00
7942;HTU21D;4016;50.758;7.150;2024-01-07T23:40:38;-0.28;102.60
7942;HTU21D;4016;50.758;7.150;2024-01-07T23:45:39;-0.21;100.57
7942;HTU21D;4016;50.758;7.150;2024-01-07T23:50:40;-0.32;100.61
7942;HTU21D;4016;50.758;7.150;2024-01-07T23:55:40;-0.11;98.81
